createdAt,value
2019-05-07T05:50:36.865Z,7.10
2019-05-07T05:51:36.826Z,7.20
2019-05-07T05:52:36.813Z,7.27
2019-05-07T05:53:36.774Z,7.24
2019-05-07T05:54:36.752Z,7.27
2019-05-07T05:55:36.726Z,7.28
2019-05-07T05:56:36.702Z,7.42
2019-05-07T05:57:36.692Z,7.34
2019-05-07T05:58:36.655Z,7.49
2019-05-07T05:59:47.901Z,7.45
2019-05-07T06:00:36.607Z,7.49
2019-05-07T06:01:36.589Z,7.61
2019-05-07T06:02:36.579Z,7.53
2019-05-07T06:03:36.539Z,7.52
2019-05-07T06:04:36.521Z,7.71
2019-05-07T06:05:36.496Z,7.57
2019-05-07T06:06:36.474Z,7.61
2019-05-07T06:07:36.493Z,7.55
2019-05-07T06:08:36.430Z,7.67
2019-05-07T06:09:36.406Z,7.61
2019-05-07T06:19:39.819Z,7.93
2019-05-07T06:20:39.778Z,8.02
2019-05-07T06:21:41.797Z,8.11
2019-05-07T06:22:39.731Z,8.28
2019-05-07T06:23:41.483Z,8.23
2019-05-07T06:24:39.698Z,8.37
2019-05-07T06:25:39.663Z,8.41
2019-05-07T06:26:39.641Z,8.33
2019-05-07T06:27:41.698Z,8.22
2019-05-07T06:28:39.597Z,8.28
2019-05-07T06:29:39.590Z,8.33
2019-05-07T06:37:28.697Z,8.18
2019-05-07T06:38:28.661Z,8.23
2019-05-07T06:39:28.640Z,8.34
2019-05-07T06:40:29.450Z,8.19
2019-05-07T06:41:28.595Z,8.19
2019-05-07T06:42:28.575Z,8.36
2019-05-07T06:43:28.553Z,8.45
2019-05-07T06:44:28.529Z,8.62
2019-05-07T06:45:28.523Z,8.53
2019-05-07T06:46:28.491Z,8.74
2019-05-07T06:47:28.466Z,8.80
2019-05-07T06:48:41.402Z,8.83
2019-05-07T06:49:28.425Z,8.74
2019-05-07T06:50:28.425Z,8.98
2019-05-07T06:51:28.382Z,9.15
2019-05-07T06:52:28.364Z,9.24
2019-05-07T06:53:28.344Z,9.35
2019-05-07T06:54:28.320Z,9.46
2019-05-07T06:55:28.299Z,9.36
2019-05-07T06:56:28.293Z,9.28
2019-05-07T06:57:28.257Z,9.18
2019-05-07T07:05:02.832Z,9.21
2019-05-07T07:06:02.718Z,9.28
2019-05-07T07:07:02.020Z,9.20
2019-05-07T07:08:02.368Z,9.23
2019-05-07T07:09:01.958Z,9.29
2019-05-07T07:10:02.653Z,9.29
2019-05-07T07:11:02.624Z,9.47
2019-05-07T07:12:02.198Z,9.29
2019-05-07T07:17:22.432Z,9.75
2019-05-07T07:18:23.103Z,9.71
2019-05-07T07:19:23.288Z,9.75
2019-05-07T07:20:22.192Z,9.71
2019-05-07T07:21:22.168Z,9.66
2019-05-07T07:22:22.336Z,9.60
2019-05-07T07:23:22.764Z,9.75
2019-05-07T07:24:22.330Z,9.72
2019-05-07T07:25:22.951Z,9.74
2019-05-07T07:26:22.240Z,9.71
2019-05-07T07:27:22.768Z,9.79
2019-05-07T07:28:22.116Z,9.87
2019-05-07T07:29:22.070Z,10.07
2019-05-07T07:30:21.988Z,10.12
2019-05-07T07:31:24.329Z,10.18
2019-05-07T07:32:22.144Z,10.14
2019-05-07T07:33:22.483Z,10.07
2019-05-07T07:34:22.777Z,10.25
2019-05-07T07:35:22.562Z,10.32
2019-05-07T07:36:22.547Z,10.34
2019-05-07T07:37:22.920Z,10.40
2019-05-07T07:38:22.281Z,10.52
2019-05-07T07:39:22.025Z,10.81
2019-05-07T07:40:22.408Z,10.94
2019-05-07T07:41:22.302Z,11.18
2019-05-07T07:42:22.911Z,11.15
2019-05-07T07:43:21.913Z,11.07
2019-05-07T07:44:22.408Z,11.22
2019-05-07T07:45:22.990Z,11.33
2019-05-07T07:46:22.216Z,11.42
2019-05-07T07:47:22.321Z,11.62
2019-05-07T07:48:24.500Z,11.67
2019-05-07T07:49:22.245Z,11.40
2019-05-07T07:50:22.428Z,11.19
2019-05-07T07:51:37.321Z,11.27
2019-05-07T07:52:22.985Z,11.51
2019-05-07T07:53:22.715Z,11.52
2019-05-07T07:54:22.683Z,11.69
2019-05-07T07:55:22.270Z,11.86
2019-05-07T07:56:23.056Z,11.98
2019-05-07T07:57:21.846Z,11.86
2019-05-07T07:58:22.157Z,11.76
2019-05-07T07:59:22.176Z,11.49
2019-05-07T08:00:23.289Z,11.58
2019-05-07T08:01:22.584Z,11.80
2019-05-07T08:02:22.974Z,11.85
2019-05-07T08:03:22.554Z,11.95
2019-05-07T08:04:22.875Z,11.95
2019-05-07T08:05:21.912Z,11.86
2019-05-07T08:06:22.553Z,11.57
2019-05-07T08:07:22.893Z,11.54
2019-05-07T08:08:21.933Z,11.70
2019-05-07T08:09:23.954Z,11.51
2019-05-07T08:10:22.132Z,11.51
2019-05-07T08:11:21.977Z,11.76
2019-05-07T08:12:22.144Z,11.91
2019-05-07T08:13:22.928Z,11.83
2019-05-07T08:14:21.916Z,11.78
2019-05-07T08:15:24.497Z,11.99
2019-05-07T08:16:22.261Z,11.95
2019-05-07T08:17:22.410Z,12.24
2019-05-07T08:18:22.246Z,12.35
2019-05-07T08:19:24.402Z,12.45
2019-05-07T08:20:22.224Z,12.47
2019-05-07T08:21:22.713Z,12.12
2019-05-07T08:22:22.553Z,12.27
2019-05-07T08:23:22.622Z,12.42
2019-05-07T08:24:22.583Z,12.70
2019-05-07T08:25:21.827Z,12.53
2019-05-07T08:26:21.939Z,12.75
2019-05-07T08:27:22.252Z,13.00
2019-05-07T08:28:23.222Z,12.95
2019-05-07T08:29:22.486Z,12.96
2019-05-07T08:30:22.245Z,12.82
2019-05-07T08:31:22.575Z,12.57
2019-05-07T08:32:22.270Z,12.68
2019-05-07T08:33:22.410Z,12.41
2019-05-07T08:34:21.830Z,12.04
2019-05-07T08:35:21.970Z,11.99
2019-05-07T08:36:22.595Z,11.99
2019-05-07T08:37:24.227Z,12.13
2019-05-07T08:38:21.897Z,12.35
2019-05-07T08:39:22.322Z,12.42
2019-05-07T08:40:22.051Z,12.68
2019-05-07T08:41:22.469Z,12.90
2019-05-07T08:42:22.737Z,12.90
2019-05-07T08:43:21.884Z,12.70
2019-05-07T08:44:22.320Z,12.87
2019-05-07T08:45:24.687Z,13.05
2019-05-07T08:46:22.325Z,13.20
2019-05-07T08:47:22.696Z,13.36
2019-05-07T08:48:21.671Z,13.45
2019-05-07T08:49:33.230Z,13.30
2019-05-07T08:50:22.239Z,12.72
2019-05-07T08:51:22.033Z,12.60
2019-05-07T08:52:22.679Z,12.42
2019-05-07T08:53:22.350Z,12.62
2019-05-07T08:54:22.599Z,12.97
2019-05-07T08:55:21.773Z,13.03
2019-05-07T08:56:22.347Z,13.17
2019-05-07T08:57:22.593Z,13.04
2019-05-07T08:58:22.382Z,12.82
2019-05-07T08:59:22.282Z,12.62
2019-05-07T09:00:22.369Z,12.38
2019-05-07T09:01:21.824Z,12.68
2019-05-07T09:02:22.244Z,12.85
2019-05-07T09:03:22.453Z,12.78
2019-05-07T09:04:21.986Z,13.04
2019-05-07T09:05:22.094Z,13.19
2019-05-07T09:06:22.029Z,13.46
2019-05-07T09:07:21.839Z,13.60
2019-05-07T09:08:21.794Z,13.49
2019-05-07T09:09:22.238Z,13.77
2019-05-07T09:10:21.809Z,13.51
2019-05-07T09:11:20.182Z,13.44
2019-05-07T09:12:20.167Z,13.59
2019-05-07T09:13:20.149Z,13.28
2019-05-07T09:14:22.850Z,13.49
2019-05-07T09:15:20.131Z,13.67
2019-05-07T09:16:20.101Z,13.51
2019-05-07T09:17:20.084Z,13.23
2019-05-07T09:18:20.066Z,13.19
2019-05-07T09:19:21.684Z,13.38
2019-05-07T09:20:20.043Z,13.45
2019-05-07T09:21:20.018Z,13.45
2019-05-07T09:22:20.004Z,13.45
2019-05-07T09:23:19.985Z,13.52
2019-05-07T09:24:19.970Z,13.62
2019-05-07T09:25:22.134Z,13.44
2019-05-07T09:26:22.011Z,13.62
2019-05-07T09:27:22.152Z,13.70
2019-05-07T09:28:21.785Z,13.78
2019-05-07T09:29:22.067Z,13.55
2019-05-07T09:30:21.895Z,13.55
2019-05-07T09:31:19.854Z,13.55
2019-05-07T09:32:19.989Z,13.64
2019-05-07T09:33:19.826Z,13.46
2019-05-07T09:34:22.153Z,13.49
2019-05-07T09:35:21.569Z,13.28
2019-05-07T09:36:19.772Z,13.28
2019-05-07T09:37:19.758Z,13.48
2019-05-07T09:38:19.740Z,13.62
2019-05-07T09:39:19.723Z,13.88
2019-05-07T09:40:21.625Z,13.64
2019-05-07T09:41:19.690Z,13.88
2019-05-07T09:42:19.675Z,13.70
2019-05-07T09:43:21.898Z,13.75
2019-05-07T09:44:19.650Z,13.88
2019-05-07T09:45:19.653Z,13.87
2019-05-07T09:46:20.717Z,14.06
2019-05-07T09:47:21.761Z,14.20
2019-05-07T09:48:19.581Z,14.35
2019-05-07T09:49:19.561Z,14.39
2019-05-07T09:50:21.878Z,14.32
2019-05-07T09:51:19.529Z,14.33
2019-05-07T09:52:19.514Z,14.64
2019-05-07T09:53:19.495Z,14.72
2019-05-07T09:54:19.481Z,14.96
2019-05-07T09:55:19.482Z,15.10
2019-05-07T09:56:19.451Z,15.01
2019-05-07T09:57:30.204Z,14.72
2019-05-07T09:58:33.144Z,14.86
2019-05-07T09:59:19.403Z,14.91
2019-05-07T10:00:19.407Z,14.83
2019-05-07T10:01:19.373Z,14.58
2019-05-07T10:02:19.354Z,14.61
2019-05-07T10:03:19.340Z,14.81
2019-05-07T10:04:19.325Z,14.89
2019-05-07T10:05:19.325Z,14.46
2019-05-07T10:06:19.294Z,14.33
2019-05-07T10:07:19.281Z,14.47
2019-05-07T10:08:19.264Z,14.35
2019-05-07T10:09:19.247Z,14.33
2019-05-07T10:10:19.248Z,14.43
2019-05-07T10:11:19.220Z,14.58
2019-05-07T10:12:19.202Z,14.75
2019-05-07T10:13:19.184Z,14.84
2019-05-07T10:14:19.168Z,15.06
2019-05-07T10:15:19.169Z,14.47
2019-05-07T10:16:19.137Z,14.70
2019-05-07T10:17:19.122Z,14.77
2019-05-07T10:18:19.106Z,14.75
2019-05-07T10:19:19.093Z,14.99
2019-05-07T10:20:22.391Z,15.07
2019-05-07T10:21:19.060Z,14.77
2019-05-07T10:22:19.046Z,14.73
2019-05-07T10:23:19.030Z,14.35
2019-05-07T10:24:19.018Z,14.54
2019-05-07T10:25:19.013Z,14.70
2019-05-07T10:26:18.991Z,14.73
2019-05-07T10:27:18.971Z,14.68
2019-05-07T10:28:18.953Z,14.78
2019-05-07T10:29:18.937Z,14.88
2019-05-07T10:30:18.933Z,14.77
2019-05-07T10:31:18.904Z,14.57
2019-05-07T10:32:18.889Z,14.61
2019-05-07T10:33:18.878Z,14.52
2019-05-07T10:34:18.858Z,14.40
2019-05-07T10:35:18.853Z,14.28
2019-05-07T10:36:18.830Z,14.14
2019-05-07T10:37:18.809Z,13.87
2019-05-07T10:38:18.795Z,13.82
2019-05-07T10:39:18.778Z,13.82
2019-05-07T10:40:18.776Z,13.92
2019-05-07T10:41:18.744Z,13.96
2019-05-07T10:42:18.729Z,13.69
2019-05-07T10:43:18.716Z,13.45
2019-05-07T10:44:18.701Z,13.44
2019-05-07T10:45:18.698Z,13.30
2019-05-07T10:46:18.667Z,13.19
2019-05-07T10:47:18.653Z,13.41
2019-05-07T10:48:18.635Z,13.45
2019-05-07T10:49:18.635Z,13.49
2019-05-07T10:50:32.231Z,13.30
2019-05-07T10:51:18.586Z,13.55
2019-05-07T10:52:18.575Z,13.70
2019-05-07T10:53:18.554Z,14.06
2019-05-07T10:54:18.536Z,14.46
2019-05-07T10:55:18.539Z,14.70
2019-05-07T10:56:18.505Z,14.62
2019-05-07T10:57:18.488Z,14.54
2019-05-07T10:58:18.473Z,14.47
2019-05-07T10:59:18.455Z,14.62
2019-05-07T11:00:18.453Z,14.84
2019-05-07T11:01:18.425Z,14.77
2019-05-07T11:02:18.420Z,14.57
2019-05-07T11:03:18.392Z,14.92
2019-05-07T11:04:18.376Z,15.23
2019-05-07T11:05:18.377Z,15.21
2019-05-07T11:06:18.345Z,15.28
2019-05-07T11:07:18.330Z,15.36
2019-05-07T11:08:18.314Z,15.11
2019-05-07T11:09:18.296Z,14.89
2019-05-07T11:10:18.296Z,14.86
2019-05-07T11:11:18.267Z,14.55
2019-05-07T11:12:18.250Z,14.57
2019-05-07T11:13:18.236Z,14.29
2019-05-07T11:14:18.219Z,14.00
2019-05-07T11:15:18.222Z,14.09
2019-05-07T11:16:18.188Z,14.09
2019-05-07T11:17:18.174Z,14.24
2019-05-07T11:18:18.156Z,14.09
2019-05-07T11:19:18.967Z,14.02
2019-05-07T11:20:18.126Z,14.02
2019-05-07T11:21:18.124Z,14.14
2019-05-07T11:22:18.095Z,13.87
2019-05-07T11:23:18.080Z,13.82
2019-05-07T11:24:18.063Z,13.77
2019-05-07T11:25:18.048Z,13.75
2019-05-07T11:26:18.048Z,13.79
2019-05-07T11:27:18.015Z,13.88
2019-05-07T11:28:18.006Z,13.85
2019-05-07T11:29:18.981Z,13.88
2019-05-07T11:30:17.967Z,13.75
2019-05-07T11:31:17.951Z,13.71
2019-05-07T11:32:17.952Z,13.46
2019-05-07T11:33:17.918Z,13.44
2019-05-07T11:34:17.906Z,13.55
2019-05-07T11:35:17.885Z,13.59
2019-05-07T11:36:17.869Z,13.55
2019-05-07T11:37:17.875Z,13.49
2019-05-07T11:38:21.484Z,13.52
2019-05-07T11:39:17.823Z,13.38
2019-05-07T11:40:19.990Z,13.39
2019-05-07T11:41:17.787Z,13.36
2019-05-07T11:42:17.808Z,13.33
2019-05-07T11:43:17.756Z,13.22
2019-05-07T11:44:17.742Z,13.17
2019-05-07T11:45:17.730Z,13.23
2019-05-07T11:46:17.708Z,13.32
2019-05-07T11:47:17.690Z,13.42
2019-05-07T11:48:17.687Z,13.48
2019-05-07T11:49:17.655Z,13.42
2019-05-07T11:50:17.639Z,13.48
2019-05-07T11:51:17.624Z,13.54
2019-05-07T11:52:17.606Z,13.41
2019-05-07T11:53:17.604Z,13.44
2019-05-07T11:54:17.570Z,13.41
2019-05-07T11:55:17.558Z,13.51
2019-05-07T11:56:17.540Z,13.60
2019-05-07T11:57:17.524Z,13.82
2019-05-07T11:58:17.521Z,14.00
2019-05-07T11:59:17.496Z,14.17
2019-05-07T12:00:17.472Z,14.24
2019-05-07T12:01:17.457Z,14.39
2019-05-07T12:02:17.438Z,14.55
2019-05-07T12:03:17.439Z,14.36
2019-05-07T12:04:17.410Z,14.28
2019-05-07T12:05:17.387Z,14.68
2019-05-07T12:06:17.376Z,14.98
2019-05-07T12:07:17.356Z,15.27
2019-05-07T12:08:17.384Z,15.34
2019-05-07T12:09:17.326Z,15.36
2019-05-07T12:10:17.308Z,15.49
2019-05-07T12:11:17.293Z,15.54
2019-05-07T12:12:17.276Z,15.97
2019-05-07T12:13:17.258Z,16.21
2019-05-07T12:14:28.121Z,16.20
2019-05-07T12:15:17.228Z,16.15
2019-05-07T12:16:17.215Z,16.79
2019-05-07T12:17:17.198Z,17.36
2019-05-07T12:18:27.504Z,17.55
2019-05-07T12:19:17.217Z,17.66
2019-05-07T12:20:17.150Z,17.58
2019-05-07T12:21:20.972Z,17.82
2019-05-07T12:22:17.122Z,17.63
2019-05-07T12:23:17.105Z,17.68
2019-05-07T12:24:17.090Z,17.68
2019-05-07T12:25:17.095Z,17.00
2019-05-07T12:26:17.063Z,16.52
2019-05-07T12:27:17.048Z,16.42
2019-05-07T12:28:17.034Z,16.14
2019-05-07T12:29:17.018Z,16.68
2019-05-07T12:30:17.026Z,16.46
2019-05-07T12:31:16.989Z,16.57
2019-05-07T12:32:16.974Z,16.49
2019-05-07T12:33:16.959Z,15.71
2019-05-07T12:34:16.947Z,15.75
2019-05-07T12:35:16.936Z,15.78
2019-05-07T12:36:16.939Z,16.07
2019-05-07T12:37:16.900Z,16.50
2019-05-07T12:38:16.887Z,16.50
2019-05-07T12:39:16.880Z,16.48
2019-05-07T12:40:16.858Z,16.17
2019-05-07T12:41:16.856Z,15.84
2019-05-07T12:42:16.829Z,15.59
2019-05-07T12:43:16.816Z,15.68
2019-05-07T12:44:16.801Z,15.65
2019-05-07T12:45:16.784Z,15.90
2019-05-07T12:46:16.786Z,16.11
2019-05-07T12:47:16.755Z,15.59
2019-05-07T12:48:16.741Z,15.84
2019-05-07T12:49:16.726Z,15.80
2019-05-07T12:50:16.725Z,15.87
2019-05-07T12:51:16.719Z,15.93
2019-05-07T12:52:16.685Z,15.96
2019-05-07T12:53:16.672Z,15.97
2019-05-07T12:54:16.655Z,16.21
2019-05-07T12:55:16.640Z,16.23
2019-05-07T12:56:16.625Z,16.53
2019-05-07T12:57:16.623Z,16.24
2019-05-07T12:58:16.596Z,16.43
2019-05-07T12:59:16.581Z,16.50
2019-05-07T13:00:16.568Z,16.58
2019-05-07T13:01:16.553Z,16.57
2019-05-07T13:02:33.263Z,16.79
2019-05-07T13:03:16.523Z,16.25
2019-05-07T13:04:16.510Z,15.78
2019-05-07T13:05:16.495Z,15.93
2019-05-07T13:06:16.492Z,15.47
2019-05-07T13:07:16.488Z,15.27
2019-05-07T13:08:16.452Z,15.11
2019-05-07T13:09:16.436Z,15.11
2019-05-07T13:10:16.422Z,14.61
2019-05-07T13:11:16.426Z,14.98
2019-05-07T13:12:16.393Z,15.21
2019-05-07T13:13:16.403Z,15.02
2019-05-07T13:14:16.367Z,15.02
2019-05-07T13:15:25.109Z,15.17
2019-05-07T13:16:16.338Z,15.50
2019-05-07T13:17:16.321Z,15.80
2019-05-07T13:18:16.327Z,15.92
2019-05-07T13:19:16.295Z,16.02
2019-05-07T13:20:16.279Z,16.09
2019-05-07T13:21:16.262Z,16.15
2019-05-07T13:22:16.249Z,16.24
2019-05-07T13:23:16.254Z,16.39
2019-05-07T13:24:16.224Z,15.76
2019-05-07T13:25:16.206Z,15.51
2019-05-07T13:26:16.189Z,15.50
2019-05-07T13:27:16.188Z,15.27
2019-05-07T13:28:16.181Z,15.09
2019-05-07T13:29:16.146Z,15.10
2019-05-07T13:30:16.143Z,15.29
2019-05-07T13:31:16.120Z,15.34
2019-05-07T13:32:16.105Z,15.47
2019-05-07T13:33:16.086Z,15.60
2019-05-07T13:34:16.089Z,15.57
2019-05-07T13:35:16.058Z,15.60
2019-05-07T13:36:16.043Z,15.53
2019-05-07T13:37:16.029Z,15.71
2019-05-07T13:38:16.013Z,16.01
2019-05-07T13:39:16.015Z,15.72
2019-05-07T13:40:15.986Z,15.54
2019-05-07T13:41:15.973Z,15.32
2019-05-07T13:42:15.954Z,14.80
2019-05-07T13:43:15.938Z,14.73
2019-05-07T13:44:15.941Z,14.20
2019-05-07T13:45:15.909Z,14.35
2019-05-07T13:46:15.893Z,14.09
2019-05-07T13:47:15.878Z,14.09
2019-05-07T13:48:15.863Z,14.10
2019-05-07T13:49:15.863Z,14.37
2019-05-07T13:50:15.833Z,14.54
2019-05-07T13:51:15.826Z,14.68
2019-05-07T13:52:15.802Z,14.96
2019-05-07T13:53:15.789Z,15.28
2019-05-07T13:54:15.770Z,15.54
2019-05-07T13:55:15.771Z,15.72
2019-05-07T13:56:15.744Z,15.71
2019-05-07T13:57:15.738Z,15.34
2019-05-07T13:58:15.711Z,15.28
2019-05-07T13:59:15.696Z,15.46
2019-05-07T14:00:15.719Z,15.51
2019-05-07T14:01:15.666Z,15.36
2019-05-07T14:02:15.769Z,15.57
2019-05-07T14:03:15.636Z,15.49
2019-05-07T14:04:15.623Z,15.41
2019-05-07T14:05:15.604Z,15.34
2019-05-07T14:06:16.667Z,15.29
2019-05-07T14:07:15.575Z,15.46
2019-05-07T14:08:15.559Z,15.51
2019-05-07T14:09:15.545Z,15.59
2019-05-07T14:10:15.528Z,15.71
2019-05-07T14:11:15.514Z,15.87
2019-05-07T14:12:15.513Z,16.02
2019-05-07T14:13:17.537Z,15.74
2019-05-07T14:14:15.465Z,15.83
2019-05-07T14:15:15.455Z,15.49
2019-05-07T14:16:15.435Z,15.36
2019-05-07T14:17:15.434Z,15.41
2019-05-07T14:18:15.404Z,15.35
2019-05-07T14:19:15.389Z,15.13
2019-05-07T14:20:15.375Z,14.98
2019-05-07T14:21:15.359Z,14.94
2019-05-07T14:22:19.013Z,15.16
2019-05-07T14:23:15.330Z,15.31
2019-05-07T14:24:15.315Z,15.32
2019-05-07T14:25:15.302Z,15.54
2019-05-07T14:26:15.302Z,15.60
2019-05-07T14:27:15.283Z,15.93
2019-05-07T14:28:15.253Z,15.82
2019-05-07T14:29:15.259Z,15.38
2019-05-07T14:30:15.222Z,15.29
2019-05-07T14:31:15.219Z,15.29
2019-05-07T14:32:15.211Z,15.59
2019-05-07T14:33:15.187Z,15.92
2019-05-07T14:34:15.163Z,16.30
2019-05-07T14:35:15.146Z,16.56
2019-05-07T14:36:15.134Z,16.98
2019-05-07T14:37:15.129Z,17.15
2019-05-07T14:38:15.104Z,17.46
2019-05-07T14:39:15.087Z,18.41
2019-05-07T14:40:15.072Z,18.07
2019-05-07T14:41:15.057Z,18.81
2019-05-07T14:42:15.059Z,19.31
2019-05-07T14:43:15.029Z,19.78
2019-05-07T14:44:15.017Z,19.56
2019-05-07T14:45:15.001Z,19.22
2019-05-07T14:46:14.988Z,18.87
2019-05-07T14:47:14.996Z,18.70
2019-05-07T14:48:14.965Z,18.26
2019-05-07T14:49:14.949Z,17.81
2019-05-07T14:50:14.935Z,17.37
2019-05-07T14:51:14.923Z,17.04
2019-05-07T14:52:28.115Z,17.08
2019-05-07T14:53:14.908Z,18.91
2019-05-07T14:54:14.884Z,19.40
2019-05-07T14:55:14.899Z,18.45
2019-05-07T14:56:14.858Z,17.68
2019-05-07T14:57:14.862Z,17.16
2019-05-07T14:58:14.834Z,16.85
2019-05-07T14:59:14.818Z,16.60
2019-05-07T15:00:14.805Z,16.12
2019-05-07T15:01:14.795Z,16.09
2019-05-07T15:02:14.815Z,16.02
2019-05-07T15:03:14.768Z,15.89
2019-05-07T15:04:14.753Z,15.62
2019-05-07T15:05:14.746Z,15.56
2019-05-07T15:06:14.728Z,15.72
2019-05-07T15:07:14.712Z,15.72
2019-05-07T15:08:14.755Z,15.75
2019-05-07T15:09:14.686Z,15.74
2019-05-07T15:10:14.671Z,15.44
2019-05-07T15:11:14.655Z,15.23
2019-05-07T15:12:15.003Z,14.81
2019-05-07T15:13:14.638Z,14.75
2019-05-07T15:14:14.612Z,14.72
2019-05-07T15:15:14.604Z,14.70
2019-05-07T15:16:14.585Z,14.78
2019-05-07T15:17:14.569Z,14.62
2019-05-07T15:18:15.823Z,14.73
2019-05-07T15:19:14.571Z,14.80
2019-05-07T15:20:17.491Z,14.95
2019-05-07T15:21:14.532Z,15.01
2019-05-07T15:22:14.515Z,14.98
2019-05-07T15:23:14.495Z,15.02
2019-05-07T15:24:14.463Z,14.91
2019-05-07T15:25:14.447Z,14.75
2019-05-07T15:26:14.436Z,14.92
2019-05-07T15:27:14.416Z,14.70
2019-05-07T15:28:14.420Z,14.73
2019-05-07T15:29:14.386Z,14.72
2019-05-07T15:30:14.370Z,14.70
2019-05-07T15:31:14.356Z,14.91
2019-05-07T15:32:14.340Z,14.77
2019-05-07T15:33:14.321Z,14.95
2019-05-07T15:34:14.339Z,14.73
2019-05-07T15:35:14.293Z,14.73
2019-05-07T15:36:14.276Z,14.73
2019-05-07T15:37:14.262Z,14.77
2019-05-07T15:38:14.246Z,14.84
2019-05-07T15:39:14.242Z,14.94
2019-05-07T15:40:14.211Z,15.01
2019-05-07T15:41:14.195Z,15.06
2019-05-07T15:42:14.180Z,14.94
2019-05-07T15:43:14.165Z,14.96
2019-05-07T15:44:14.161Z,15.10
2019-05-07T15:45:14.134Z,14.96
2019-05-07T15:46:14.114Z,14.95
2019-05-07T15:47:14.100Z,15.02
2019-05-07T15:48:14.094Z,15.09
2019-05-07T15:49:14.086Z,15.07
2019-05-07T15:50:14.055Z,15.07
2019-05-07T15:51:16.686Z,15.09
2019-05-07T15:52:14.019Z,15.21
2019-05-07T15:53:14.003Z,15.23
2019-05-07T15:54:13.988Z,15.21
2019-05-07T15:55:14.011Z,15.29
2019-05-07T15:56:13.955Z,15.32
2019-05-07T15:57:13.940Z,15.94
2019-05-07T15:58:13.921Z,16.09
2019-05-07T15:59:13.907Z,16.11
2019-05-07T16:00:13.890Z,16.38
2019-05-07T16:01:13.888Z,16.42
2019-05-07T16:02:13.859Z,16.48
2019-05-07T16:03:13.859Z,16.89
2019-05-07T16:04:22.350Z,16.52
2019-05-07T16:05:13.813Z,16.73
2019-05-07T16:06:13.833Z,16.98
2019-05-07T16:07:13.785Z,17.40
2019-05-07T16:08:13.770Z,17.40
2019-05-07T16:09:13.752Z,17.34
2019-05-07T16:10:15.153Z,18.36
2019-05-07T16:11:13.729Z,19.59
2019-05-07T16:12:13.724Z,19.47
2019-05-07T16:13:13.830Z,18.78
2019-05-07T16:14:14.667Z,17.81
2019-05-07T16:15:13.932Z,18.10
2019-05-07T16:16:13.660Z,17.79
2019-05-07T16:17:13.657Z,17.37
2019-05-07T16:18:13.628Z,16.71
2019-05-07T16:19:13.620Z,16.60
2019-05-07T16:20:14.255Z,16.50
2019-05-07T16:21:13.590Z,16.39
2019-05-07T16:22:13.602Z,16.02
2019-05-07T16:23:17.327Z,15.89
2019-05-07T16:24:13.550Z,15.84
2019-05-07T16:25:13.538Z,15.78
2019-05-07T16:26:13.522Z,15.50
2019-05-07T16:27:13.524Z,15.43
2019-05-07T16:28:13.513Z,15.46
2019-05-07T16:29:13.600Z,15.53
2019-05-07T16:30:14.263Z,15.49
2019-05-07T16:31:13.453Z,15.51
2019-05-07T16:32:13.461Z,15.51
2019-05-07T16:33:13.425Z,15.60
2019-05-07T16:34:13.416Z,15.59
2019-05-07T16:35:16.045Z,15.38
2019-05-07T16:36:13.385Z,15.36
2019-05-07T16:37:13.366Z,15.27
2019-05-07T16:38:15.623Z,15.27
2019-05-07T16:39:13.338Z,15.38
2019-05-07T16:40:13.326Z,15.36
2019-05-07T16:41:13.586Z,15.36
2019-05-07T16:42:13.294Z,15.28
2019-05-07T16:43:13.278Z,15.34
2019-05-07T16:44:13.278Z,15.53
2019-05-07T16:45:13.348Z,15.72
2019-05-07T16:46:13.233Z,15.83
2019-05-07T16:47:13.219Z,15.90
2019-05-07T16:48:13.204Z,15.96
2019-05-07T16:49:13.203Z,15.71
2019-05-07T16:50:13.225Z,16.07
2019-05-07T16:51:13.160Z,16.35
2019-05-07T16:52:13.143Z,16.45
2019-05-07T16:53:25.814Z,16.39
2019-05-07T16:54:13.151Z,16.27
2019-05-07T16:55:13.098Z,16.21
2019-05-07T16:56:13.083Z,16.75
2019-05-07T16:57:13.068Z,17.64
2019-05-07T16:58:13.056Z,18.23
2019-05-07T16:59:13.044Z,17.99
2019-05-07T17:00:13.040Z,17.71
2019-05-07T17:01:13.013Z,17.55
2019-05-07T17:02:12.999Z,17.41
2019-05-07T17:03:12.983Z,17.28
2019-05-07T17:04:12.969Z,17.11
2019-05-07T17:05:12.969Z,17.08
2019-05-07T17:06:12.943Z,17.22
2019-05-07T17:07:13.316Z,18.23
2019-05-07T17:08:12.914Z,19.04
2019-05-07T17:09:13.511Z,19.21
2019-05-07T17:10:12.900Z,18.50
2019-05-07T17:11:12.873Z,18.15
2019-05-07T17:12:12.860Z,17.44
2019-05-07T17:13:12.849Z,17.34
2019-05-07T17:14:13.153Z,17.16
2019-05-07T17:15:12.822Z,16.89
2019-05-07T17:16:12.834Z,16.21
2019-05-07T17:17:12.796Z,15.59
2019-05-07T17:18:12.781Z,15.49
2019-05-07T17:19:12.768Z,15.50
2019-05-07T17:20:12.834Z,15.21
2019-05-07T17:21:12.755Z,14.96
2019-05-07T17:22:12.726Z,14.94
2019-05-07T17:23:12.713Z,14.92
2019-05-07T17:24:12.701Z,14.73
2019-05-07T17:25:13.130Z,14.75
2019-05-07T17:26:12.687Z,14.65
2019-05-07T17:27:12.656Z,14.50
2019-05-07T17:28:12.782Z,14.40
2019-05-07T17:29:12.627Z,14.60
2019-05-07T17:30:12.612Z,14.75
2019-05-07T17:31:12.617Z,15.10
2019-05-07T17:32:12.584Z,15.32
2019-05-07T17:33:12.945Z,15.41
2019-05-07T17:34:12.553Z,15.27
2019-05-07T17:35:12.963Z,15.09
2019-05-07T17:36:12.530Z,15.49
2019-05-07T17:37:12.709Z,15.68
2019-05-07T17:38:12.986Z,15.44
2019-05-07T17:39:12.480Z,15.49
2019-05-07T17:40:12.468Z,15.59
2019-05-07T17:41:20.081Z,15.59
2019-05-07T17:42:12.447Z,15.46
2019-05-07T17:43:12.434Z,15.21
2019-05-07T17:44:12.414Z,14.92
2019-05-07T17:45:12.387Z,14.89
2019-05-07T17:46:12.374Z,14.72
2019-05-07T17:47:12.816Z,14.70
2019-05-07T17:48:12.421Z,14.50
2019-05-07T17:49:12.330Z,14.22
2019-05-07T17:50:12.685Z,14.06
2019-05-07T17:51:12.487Z,14.04
2019-05-07T17:52:12.612Z,14.10
2019-05-07T17:53:12.265Z,13.95
2019-05-07T17:54:13.248Z,13.88
2019-05-07T17:55:13.086Z,13.91
2019-05-07T17:56:12.763Z,13.87
2019-05-07T17:57:13.473Z,13.84
2019-05-07T17:58:12.855Z,13.63
2019-05-07T17:59:12.434Z,13.70
2019-05-07T18:00:12.857Z,13.59
2019-05-07T18:01:12.134Z,13.57
2019-05-07T18:02:12.118Z,13.62
2019-05-07T18:03:13.112Z,13.54
2019-05-07T18:04:12.087Z,13.57
2019-05-07T18:05:12.070Z,13.59
2019-05-07T18:06:12.554Z,13.57
2019-05-07T18:07:12.240Z,13.46
2019-05-07T18:08:12.622Z,13.44
2019-05-07T18:09:12.246Z,13.39
2019-05-07T18:10:12.569Z,13.32
2019-05-07T18:11:20.876Z,13.26
2019-05-07T18:12:12.186Z,13.30
2019-05-07T18:13:12.022Z,13.28
2019-05-07T18:14:11.919Z,13.12
2019-05-07T18:15:12.655Z,13.15
2019-05-07T18:16:12.186Z,13.15
2019-05-07T18:17:12.556Z,13.10
2019-05-07T18:18:12.801Z,13.10
2019-05-07T18:19:12.609Z,13.00
2019-05-07T18:20:12.886Z,13.01
2019-05-07T18:21:12.634Z,13.03
2019-05-07T18:22:12.783Z,12.96
2019-05-07T18:23:16.613Z,13.00
2019-05-07T18:24:16.421Z,13.00
2019-05-07T18:25:12.435Z,12.85
2019-05-07T18:26:16.407Z,12.78
2019-05-07T18:27:12.581Z,12.67
2019-05-07T18:28:12.306Z,12.68
2019-05-07T18:29:11.999Z,12.72
2019-05-07T18:30:12.841Z,12.77
2019-05-07T18:31:12.581Z,12.59
2019-05-07T18:32:12.452Z,12.59
2019-05-07T18:33:11.616Z,12.56
2019-05-07T18:34:12.847Z,12.47
2019-05-07T18:35:12.625Z,12.38
2019-05-07T18:36:12.126Z,12.37
2019-05-07T18:37:12.606Z,12.35
2019-05-07T18:38:11.495Z,12.38
2019-05-07T18:39:11.489Z,12.34
2019-05-07T18:40:12.732Z,12.19
2019-05-07T18:41:12.203Z,12.10
2019-05-07T18:42:12.718Z,12.12
2019-05-07T18:43:12.276Z,12.13
2019-05-07T18:44:13.598Z,12.16
2019-05-07T18:45:12.431Z,12.14
2019-05-07T18:46:12.838Z,12.07
2019-05-07T18:47:12.882Z,12.13
2019-05-07T18:48:11.968Z,12.02
2019-05-07T18:49:12.832Z,12.01
2019-05-07T18:50:12.789Z,12.01
2019-05-07T18:51:12.197Z,12.02
2019-05-07T18:52:12.192Z,12.02
2019-05-07T18:53:12.215Z,12.02
2019-05-07T18:54:13.220Z,11.96
2019-05-07T18:55:12.033Z,11.85
2019-05-07T18:56:12.612Z,11.85
2019-05-07T18:57:11.145Z,11.85
2019-05-07T18:58:13.093Z,11.80
2019-05-07T18:59:11.110Z,11.79
2019-05-07T19:00:11.102Z,11.78
2019-05-07T19:01:11.088Z,11.78
2019-05-07T19:02:11.062Z,11.72
2019-05-07T19:03:11.033Z,11.61
2019-05-07T19:04:12.898Z,11.69
2019-05-07T19:05:12.965Z,11.62
2019-05-07T19:06:13.144Z,11.57
2019-05-07T19:07:13.039Z,11.55
2019-05-07T19:08:12.638Z,11.52
2019-05-07T19:09:10.926Z,11.51
2019-05-07T19:10:12.698Z,11.37
2019-05-07T19:11:12.266Z,11.44
2019-05-07T19:12:12.908Z,11.40